Time;durP1;ratioP1;P1;durP2;ratioP2;P2;SDS_P1;SDS_P2;PMS_P1;PMS_P2;Temp;Humidity;BMP_temperature;BMP_pressure;BME280_temperature;BME280_humidity;BME280_pressure;Samples;Min_cycle;Max_cycle;Signal;HPM_P1;HPM_P2
2023/09/03 00:00:01;;;;;;;0.10;0.10;;;;;;;;;;6328812;28;20024;-85
2023/09/03 00:03:01;;;;;;;0.00;0.00;;;;;;;;;;6326626;28;20026;-85
2023/09/03 00:06:01;;;;;;;0.10;0.10;;;;;;;;;;6326841;28;20053;-85
2023/09/03 00:09:04;;;;;;;0.10;0.10;;;;;;;;;;6315878;28;20025;-85
2023/09/03 00:12:04;;;;;;;0.10;0.10;;;;;;;;;;6305717;28;20028;-85
2023/09/03 00:15:05;;;;;;;0.10;0.10;;;;;;;;;;6325816;28;20096;-85
2023/09/03 00:18:06;;;;;;;0.03;0.03;;;;;;;;;;6316494;28;20020;-85
2023/09/03 00:21:06;;;;;;;0.10;0.10;;;;;;;;;;6319667;28;20166;-85
2023/09/03 00:24:07;;;;;;;0.10;0.10;;;;;;;;;;6317588;28;20019;-84
2023/09/03 00:27:07;;;;;;;0.10;0.10;;;;;;;;;;6330424;28;20023;-85
2023/09/03 00:30:07;;;;;;;0.10;0.10;;;;;;;;;;6325426;28;20112;-84
2023/09/03 00:33:07;;;;;;;0.10;0.10;;;;;;;;;;6320561;28;20020;-84
2023/09/03 00:36:13;;;;;;;0.10;0.10;;;;;;;;;;6333613;28;20019;-86
2023/09/03 00:39:13;;;;;;;0.10;0.10;;;;;;;;;;6326231;28;20018;-86
2023/09/03 00:42:13;;;;;;;0.10;0.10;;;;;;;;;;6330364;28;20020;-86
2023/09/03 00:45:13;;;;;;;0.10;0.10;;;;;;;;;;6338942;28;20020;-87
2023/09/03 00:48:15;;;;;;;0.10;0.10;;;;;;;;;;6333704;28;20024;-86
2023/09/03 00:51:15;;;;;;;0.10;0.10;;;;;;;;;;6303669;28;20371;-87
2023/09/03 00:54:16;;;;;;;0.10;0.10;;;;;;;;;;6318219;28;20066;-86
2023/09/03 00:57:16;;;;;;;0.00;0.00;;;;;;;;;;6319203;28;20395;-86
2023/09/03 01:00:16;;;;;;;0.10;0.10;;;;;;;;;;6324456;28;20025;-86
2023/09/03 01:03:17;;;;;;;0.10;0.10;;;;;;;;;;6325876;28;20035;-86
2023/09/03 01:06:18;;;;;;;0.10;0.10;;;;;;;;;;6317275;28;20211;-87
2023/09/03 01:09:19;;;;;;;0.10;0.10;;;;;;;;;;6313629;28;20058;-87
2023/09/03 01:12:28;;;;;;;0.10;0.10;;;;;;;;;;6329390;28;20032;-86
2023/09/03 01:15:31;;;;;;;0.00;0.00;;;;;;;;;;6324675;28;20016;-85
2023/09/03 01:18:32;;;;;;;0.10;0.10;;;;;;;;;;6317893;28;20035;-86
2023/09/03 01:21:51;;;;;;;0.10;0.10;;;;;;;;;;6323700;28;20021;-85
2023/09/03 01:24:54;;;;;;;0.10;0.10;;;;;;;;;;6325677;28;20030;-85
2023/09/03 01:27:57;;;;;;;0.10;0.10;;;;;;;;;;6319914;28;20106;-85
2023/09/03 01:31:11;;;;;;;0.10;0.10;;;;;;;;;;6321609;28;20020;-85
2023/09/03 01:34:12;;;;;;;0.10;0.10;;;;;;;;;;6311492;28;20056;-85
2023/09/03 01:37:12;;;;;;;0.10;0.10;;;;;;;;;;6319100;28;20041;-85
2023/09/03 01:40:12;;;;;;;0.10;0.10;;;;;;;;;;6313862;28;20492;-86
2023/09/03 01:43:14;;;;;;;0.10;0.10;;;;;;;;;;6312906;28;20028;-85
2023/09/03 01:46:41;;;;;;;0.10;0.10;;;;;;;;;;6313457;28;20485;-85
2023/09/03 01:50:00;;;;;;;0.10;0.10;;;;;;;;;;6308033;28;20031;-85
2023/09/03 01:53:09;;;;;;;0.10;0.10;;;;;;;;;;6310798;28;20080;-85
2023/09/03 01:56:14;;;;;;;0.10;0.10;;;;;;;;;;6318329;28;20051;-85
2023/09/03 01:59:19;;;;;;;0.10;0.10;;;;;;;;;;6316802;28;20027;-86
2023/09/03 02:02:20;;;;;;;0.10;0.10;;;;;;;;;;6324727;28;20112;-85
2023/09/03 02:05:20;;;;;;;0.10;0.10;;;;;;;;;;6331774;28;20031;-86
2023/09/03 02:08:21;;;;;;;0.10;0.10;;;;;;;;;;6318711;28;20404;-86
2023/09/03 02:11:22;;;;;;;0.10;0.10;;;;;;;;;;6314019;28;20024;-86
2023/09/03 02:14:22;;;;;;;0.10;0.10;;;;;;;;;;6314470;28;20070;-86
2023/09/03 02:17:23;;;;;;;0.10;0.10;;;;;;;;;;6331434;28;20052;-87
2023/09/03 02:20:24;;;;;;;0.10;0.10;;;;;;;;;;6319411;28;20020;-86
2023/09/03 02:23:24;;;;;;;0.10;0.10;;;;;;;;;;6313929;28;20116;-87
2023/09/03 02:26:24;;;;;;;0.10;0.10;;;;;;;;;;6333202;28;20051;-88
2023/09/03 02:29:25;;;;;;;0.10;0.10;;;;;;;;;;6334396;28;20050;-87
2023/09/03 02:32:26;;;;;;;0.10;0.10;;;;;;;;;;6340500;28;20024;-85
2023/09/03 02:35:26;;;;;;;0.10;0.10;;;;;;;;;;6328575;28;20548;-85
2023/09/03 02:38:26;;;;;;;0.10;0.10;;;;;;;;;;6328797;28;20129;-85
2023/09/03 02:41:27;;;;;;;0.10;0.10;;;;;;;;;;6321394;28;20066;-86
2023/09/03 02:44:27;;;;;;;0.10;0.10;;;;;;;;;;6324576;28;20023;-87
2023/09/03 02:47:28;;;;;;;0.10;0.10;;;;;;;;;;6326172;28;20016;-86
2023/09/03 02:50:28;;;;;;;0.10;0.10;;;;;;;;;;6330727;28;20095;-85
2023/09/03 02:53:29;;;;;;;0.10;0.10;;;;;;;;;;6318172;28;20139;-86
2023/09/03 02:56:30;;;;;;;0.10;0.10;;;;;;;;;;6321913;28;20460;-86
2023/09/03 02:59:31;;;;;;;0.10;0.10;;;;;;;;;;6321984;28;20016;-87
2023/09/03 03:02:32;;;;;;;0.10;0.10;;;;;;;;;;6327405;28;20107;-88
2023/09/03 03:05:32;;;;;;;0.10;0.10;;;;;;;;;;6326309;28;20028;-87
2023/09/03 03:08:33;;;;;;;0.10;0.10;;;;;;;;;;6322210;28;20043;-87
2023/09/03 03:11:33;;;;;;;0.10;0.10;;;;;;;;;;6325988;28;20035;-88
2023/09/03 03:14:33;;;;;;;0.10;0.10;;;;;;;;;;6322336;28;20645;-87
2023/09/03 03:17:34;;;;;;;0.10;0.10;;;;;;;;;;6323609;28;20027;-86
2023/09/03 03:20:34;;;;;;;0.10;0.10;;;;;;;;;;6325148;28;20020;-86
2023/09/03 03:23:35;;;;;;;0.10;0.10;;;;;;;;;;6314765;28;20634;-86
2023/09/03 03:26:37;;;;;;;;;;;;;;;;;;6322173;28;20012;-87
2023/09/03 03:29:37;;;;;;;0.10;0.10;;;;;;;;;;6327091;28;20677;-80
2023/09/03 03:32:37;;;;;;;0.10;0.10;;;;;;;;;;6330070;28;20030;-80
2023/09/03 03:35:38;;;;;;;0.10;0.10;;;;;;;;;;6329893;28;20383;-80
2023/09/03 03:38:38;;;;;;;0.10;0.10;;;;;;;;;;6318000;28;20016;-80
2023/09/03 03:41:40;;;;;;;0.10;0.10;;;;;;;;;;6319848;28;20039;-80
2023/09/03 03:44:42;;;;;;;0.10;0.10;;;;;;;;;;6314319;28;20047;-79
2023/09/03 03:47:48;;;;;;;0.10;0.10;;;;;;;;;;6316299;28;20098;-79
2023/09/03 03:50:54;;;;;;;0.10;0.10;;;;;;;;;;6321077;28;20146;-79
2023/09/03 03:53:55;;;;;;;0.10;0.10;;;;;;;;;;6320174;28;20119;-80
2023/09/03 03:56:55;;;;;;;0.10;0.10;;;;;;;;;;6320058;28;20022;-79
2023/09/03 03:59:55;;;;;;;0.10;0.10;;;;;;;;;;6319013;28;20047;-80
2023/09/03 04:02:59;;;;;;;0.10;0.10;;;;;;;;;;6317752;28;20036;-79
2023/09/03 04:06:00;;;;;;;0.10;0.10;;;;;;;;;;6317056;28;20375;-79
2023/09/03 04:09:00;;;;;;;0.10;0.10;;;;;;;;;;6319498;28;20012;-79
2023/09/03 04:12:02;;;;;;;0.00;0.00;;;;;;;;;;6330658;28;20035;-79
2023/09/03 04:15:04;;;;;;;0.10;0.10;;;;;;;;;;6313592;28;20066;-79
2023/09/03 04:18:05;;;;;;;0.10;0.10;;;;;;;;;;6321680;28;20510;-79
2023/09/03 04:21:05;;;;;;;0.10;0.10;;;;;;;;;;6317995;28;20019;-79
2023/09/03 04:24:06;;;;;;;0.10;0.10;;;;;;;;;;6328426;28;20015;-79
2023/09/03 04:27:06;;;;;;;0.10;0.10;;;;;;;;;;6333692;28;20011;-80
2023/09/03 04:30:07;;;;;;;0.10;0.10;;;;;;;;;;6335451;28;20016;-79
2023/09/03 04:33:08;;;;;;;0.10;0.10;;;;;;;;;;6321130;28;20110;-80
2023/09/03 04:36:09;;;;;;;0.00;0.00;;;;;;;;;;6313144;28;20364;-80
2023/09/03 04:39:11;;;;;;;0.00;0.00;;;;;;;;;;6326614;28;20765;-86
2023/09/03 04:42:11;;;;;;;0.10;0.10;;;;;;;;;;6321717;28;20019;-83
2023/09/03 04:45:11;;;;;;;0.10;0.10;;;;;;;;;;6324882;28;20023;-82
2023/09/03 04:48:12;;;;;;;0.10;0.10;;;;;;;;;;6312520;28;20158;-84
2023/09/03 04:51:12;;;;;;;0.00;0.00;;;;;;;;;;6312410;28;20099;-84
2023/09/03 04:54:12;;;;;;;0.10;0.10;;;;;;;;;;6310625;28;20040;-84
2023/09/03 04:57:13;;;;;;;0.10;0.10;;;;;;;;;;6318909;28;20024;-84
2023/09/03 05:00:13;;;;;;;0.10;0.10;;;;;;;;;;6312159;28;20023;-85
2023/09/03 05:03:13;;;;;;;0.10;0.10;;;;;;;;;;6312353;28;20044;-84
2023/09/03 05:06:15;;;;;;;0.10;0.10;;;;;;;;;;6314203;28;20167;-85
2023/09/03 05:09:15;;;;;;;;;;;;;;;;;;6317373;28;20035;-85
2023/09/03 05:12:15;;;;;;;0.00;0.00;;;;;;;;;;6312940;28;19904;-82
2023/09/03 05:15:16;;;;;;;0.10;0.10;;;;;;;;;;6321877;28;20787;-83
2023/09/03 05:18:16;;;;;;;0.10;0.10;;;;;;;;;;6322430;28;20075;-84
2023/09/03 05:21:16;;;;;;;0.00;0.00;;;;;;;;;;6331471;28;20114;-84
2023/09/03 05:24:17;;;;;;;0.10;0.10;;;;;;;;;;6313918;28;20512;-85
2023/09/03 05:27:18;;;;;;;0.10;0.10;;;;;;;;;;6324066;28;20093;-85
2023/09/03 05:30:20;;;;;;;0.00;0.00;;;;;;;;;;6328493;28;20036;-84
2023/09/03 05:33:21;;;;;;;0.10;0.10;;;;;;;;;;6309706;28;20094;-84
2023/09/03 05:36:21;;;;;;;0.00;0.00;;;;;;;;;;6304916;28;20474;-86
2023/09/03 05:39:21;;;;;;;0.10;0.10;;;;;;;;;;6308693;28;20038;-86
2023/09/03 05:42:22;;;;;;;0.10;0.10;;;;;;;;;;6320620;28;20760;-86
2023/09/03 05:45:22;;;;;;;0.00;0.00;;;;;;;;;;6322414;28;20031;-86
2023/09/03 05:48:22;;;;;;;0.10;0.10;;;;;;;;;;6313844;28;20077;-86
2023/09/03 05:51:22;;;;;;;0.00;0.00;;;;;;;;;;6313004;28;20020;-86
2023/09/03 05:54:22;;;;;;;0.10;0.10;;;;;;;;;;6314499;28;20102;-87
2023/09/03 05:57:23;;;;;;;0.00;0.00;;;;;;;;;;6311761;28;20478;-87
2023/09/03 06:00:23;;;;;;;0.00;0.00;;;;;;;;;;6312996;28;20436;-88
2023/09/03 06:03:24;;;;;;;0.10;0.10;;;;;;;;;;6315549;28;20024;-87
2023/09/03 06:06:24;;;;;;;0.10;0.10;;;;;;;;;;6308057;28;20107;-88
2023/09/03 06:09:24;;;;;;;0.00;0.00;;;;;;;;;;6317477;28;20027;-88
2023/09/03 06:12:24;;;;;;;0.10;0.10;;;;;;;;;;6307739;28;20437;-88
2023/09/03 06:15:25;;;;;;;0.10;0.10;;;;;;;;;;6306351;28;20028;-89
2023/09/03 06:18:25;;;;;;;0.00;0.00;;;;;;;;;;6310035;28;20042;-88
2023/09/03 06:21:26;;;;;;;0.10;0.10;;;;;;;;;;6317123;28;20103;-88
2023/09/03 06:24:27;;;;;;;0.10;0.10;;;;;;;;;;6310903;28;20128;-87
2023/09/03 06:27:27;;;;;;;0.10;0.10;;;;;;;;;;6321063;28;20038;-83
2023/09/03 06:30:27;;;;;;;0.00;0.00;;;;;;;;;;6315495;28;20047;-78
2023/09/03 06:33:28;;;;;;;0.00;0.00;;;;;;;;;;6317468;28;20016;-80
2023/09/03 06:36:28;;;;;;;0.10;0.10;;;;;;;;;;6316970;28;20102;-83
2023/09/03 06:39:30;;;;;;;0.10;0.10;;;;;;;;;;6314808;28;20032;-83
2023/09/03 06:42:30;;;;;;;;;;;;;;;;;;6308032;28;20150;-85
2023/09/03 06:45:31;;;;;;;0.00;0.00;;;;;;;;;;6309261;28;19912;-85
2023/09/03 06:48:31;;;;;;;0.00;0.00;;;;;;;;;;6325710;28;20024;-85
2023/09/03 06:51:32;;;;;;;0.00;0.00;;;;;;;;;;6315488;28;20103;-84
2023/09/03 06:54:32;;;;;;;0.00;0.00;;;;;;;;;;6321654;28;20561;-85
2023/09/03 06:57:32;;;;;;;0.10;0.10;;;;;;;;;;6309057;28;20091;-84
2023/09/03 07:00:34;;;;;;;0.00;0.00;;;;;;;;;;6330015;28;20013;-84
2023/09/03 07:03:34;;;;;;;0.00;0.00;;;;;;;;;;6324382;28;20769;-85
2023/09/03 07:06:34;;;;;;;0.05;0.05;;;;;;;;;;6312008;28;20036;-85
2023/09/03 07:09:35;;;;;;;0.00;0.00;;;;;;;;;;6312245;28;20553;-85
2023/09/03 07:12:35;;;;;;;0.00;0.00;;;;;;;;;;6313969;28;20031;-86
2023/09/03 07:15:36;;;;;;;0.00;0.00;;;;;;;;;;6335106;28;20045;-86
2023/09/03 07:18:36;;;;;;;;;;;;;;;;;;6296523;28;20478;-86
2023/09/03 07:21:37;;;;;;;0.00;0.00;;;;;;;;;;6309810;28;19916;-86
2023/09/03 07:24:37;;;;;;;0.00;0.00;;;;;;;;;;6319213;28;20028;-86
2023/09/03 07:27:40;;;;;;;0.00;0.00;;;;;;;;;;6320908;28;20438;-86
2023/09/03 07:30:42;;;;;;;0.00;0.00;;;;;;;;;;6325264;28;20027;-87
2023/09/03 07:33:44;;;;;;;0.00;0.00;;;;;;;;;;6320446;28;20454;-88
2023/09/03 07:36:45;;;;;;;0.00;0.00;;;;;;;;;;6325245;28;20016;-88
2023/09/03 07:39:45;;;;;;;0.00;0.00;;;;;;;;;;6320840;28;20023;-89
2023/09/03 07:42:46;;;;;;;0.00;0.00;;;;;;;;;;6318808;28;20054;-88
2023/09/03 07:45:47;;;;;;;0.00;0.00;;;;;;;;;;6321231;28;20039;-89
2023/09/03 07:48:48;;;;;;;0.00;0.00;;;;;;;;;;6327350;28;20024;-88
2023/09/03 07:51:48;;;;;;;0.00;0.00;;;;;;;;;;6339403;28;20028;-88
2023/09/03 07:54:49;;;;;;;0.00;0.00;;;;;;;;;;6336055;28;20030;-88
2023/09/03 07:57:50;;;;;;;0.00;0.00;;;;;;;;;;6322783;28;20084;-87
2023/09/03 08:00:50;;;;;;;0.00;0.00;;;;;;;;;;6327420;28;20024;-88
2023/09/03 08:03:51;;;;;;;0.00;0.00;;;;;;;;;;6325967;28;20041;-88
2023/09/03 08:06:51;;;;;;;0.00;0.00;;;;;;;;;;6309555;28;20493;-87
2023/09/03 08:09:51;;;;;;;0.00;0.00;;;;;;;;;;6316153;28;20486;-88
2023/09/03 08:12:51;;;;;;;0.00;0.00;;;;;;;;;;6319918;28;20036;-88
2023/09/03 08:15:51;;;;;;;0.00;0.00;;;;;;;;;;6316888;28;20027;-87
2023/09/03 08:18:52;;;;;;;0.00;0.00;;;;;;;;;;6312986;28;20145;-87
2023/09/03 08:21:52;;;;;;;0.00;0.00;;;;;;;;;;6314710;28;20021;-87
2023/09/03 08:24:52;;;;;;;0.00;0.00;;;;;;;;;;6310342;28;20020;-85
2023/09/03 08:27:53;;;;;;;0.00;0.00;;;;;;;;;;6319157;28;20107;-86
2023/09/03 08:30:54;;;;;;;0.00;0.00;;;;;;;;;;6328850;28;20041;-86
2023/09/03 08:33:56;;;;;;;0.00;0.00;;;;;;;;;;6325743;28;20024;-86
2023/09/03 08:36:56;;;;;;;0.00;0.00;;;;;;;;;;6308350;28;20016;-86
2023/09/03 08:39:56;;;;;;;0.00;0.00;;;;;;;;;;6312857;28;20031;-85
2023/09/03 08:42:57;;;;;;;0.00;0.00;;;;;;;;;;6319295;28;20043;-85
2023/09/03 08:46:09;;;;;;;0.00;0.00;;;;;;;;;;6318600;28;20024;-85
2023/09/03 08:49:10;;;;;;;0.00;0.00;;;;;;;;;;6328162;28;20036;-85
2023/09/03 08:52:11;;;;;;;0.00;0.00;;;;;;;;;;6327353;28;20036;-85
2023/09/03 08:55:12;;;;;;;;;;;;;;;;;;6317096;28;20046;-85
2023/09/03 08:58:13;;;;;;;0.00;0.00;;;;;;;;;;6318705;28;19912;-85
2023/09/03 09:01:13;;;;;;;0.00;0.00;;;;;;;;;;6316676;28;20390;-85
2023/09/03 09:04:14;;;;;;;0.00;0.00;;;;;;;;;;6315974;28;20106;-85
2023/09/03 09:07:17;;;;;;;0.00;0.00;;;;;;;;;;6323175;28;20047;-85
2023/09/03 09:10:21;;;;;;;0.00;0.00;;;;;;;;;;6317860;28;21479;-85
2023/09/03 09:13:23;;;;;;;0.00;0.00;;;;;;;;;;6308869;28;20127;-85
2023/09/03 09:16:23;;;;;;;0.00;0.00;;;;;;;;;;6316923;28;20016;-86
2023/09/03 09:19:23;;;;;;;0.00;0.00;;;;;;;;;;6318640;28;20030;-85
2023/09/03 09:22:24;;;;;;;0.00;0.00;;;;;;;;;;6312473;28;20492;-85
2023/09/03 09:25:25;;;;;;;0.00;0.00;;;;;;;;;;6320544;28;20043;-86
2023/09/03 09:28:26;;;;;;;0.00;0.00;;;;;;;;;;6318568;28;20372;-84
2023/09/03 09:31:35;;;;;;;0.00;0.00;;;;;;;;;;6310590;28;20070;-84
2023/09/03 09:34:41;;;;;;;0.00;0.00;;;;;;;;;;6311393;28;20585;-84
2023/09/03 09:37:41;;;;;;;0.00;0.00;;;;;;;;;;6325682;28;20015;-79
2023/09/03 09:40:42;;;;;;;0.00;0.00;;;;;;;;;;6312883;28;20551;-79
2023/09/03 09:43:48;;;;;;;0.00;0.00;;;;;;;;;;6316432;28;20017;-79
2023/09/03 09:46:48;;;;;;;0.00;0.00;;;;;;;;;;6327535;28;20108;-80
2023/09/03 09:49:49;;;;;;;0.00;0.00;;;;;;;;;;6317984;28;20016;-80
2023/09/03 09:52:49;;;;;;;0.00;0.00;;;;;;;;;;6328120;28;20097;-79
2023/09/03 09:55:57;;;;;;;0.00;0.00;;;;;;;;;;6321210;28;20429;-79
2023/09/03 09:58:58;;;;;;;0.00;0.00;;;;;;;;;;6316922;28;20047;-79
2023/09/03 10:02:09;;;;;;;0.00;0.00;;;;;;;;;;6325414;28;20470;-79
2023/09/03 10:05:10;;;;;;;0.00;0.00;;;;;;;;;;6324720;28;20028;-79
2023/09/03 10:08:10;;;;;;;0.00;0.00;;;;;;;;;;6317371;28;20562;-79
2023/09/03 10:11:11;;;;;;;0.00;0.00;;;;;;;;;;6309816;28;20024;-80
2023/09/03 10:14:11;;;;;;;0.00;0.00;;;;;;;;;;6308890;28;20034;-79
2023/09/03 10:17:12;;;;;;;0.00;0.00;;;;;;;;;;6332211;28;20394;-79
2023/09/03 10:20:15;;;;;;;0.00;0.00;;;;;;;;;;6321826;28;20008;-79
2023/09/03 10:23:18;;;;;;;0.00;0.00;;;;;;;;;;6323209;28;20024;-79
2023/09/03 10:26:28;;;;;;;0.00;0.00;;;;;;;;;;6308530;28;20598;-78
2023/09/03 10:29:30;;;;;;;0.00;0.00;;;;;;;;;;6315706;28;20027;-78
2023/09/03 10:32:31;;;;;;;0.00;0.00;;;;;;;;;;6314865;28;20028;-79
2023/09/03 10:35:33;;;;;;;0.00;0.00;;;;;;;;;;6313026;28;20043;-78
2023/09/03 10:38:33;;;;;;;0.00;0.00;;;;;;;;;;6315648;28;20055;-79
2023/09/03 10:41:33;;;;;;;0.00;0.00;;;;;;;;;;6320773;28;20391;-79
2023/09/03 10:44:34;;;;;;;0.00;0.00;;;;;;;;;;6324200;28;20023;-79
2023/09/03 10:47:54;;;;;;;0.00;0.00;;;;;;;;;;6325725;28;20441;-83
2023/09/03 10:50:54;;;;;;;0.00;0.00;;;;;;;;;;6309533;28;20035;-85
2023/09/03 10:53:54;;;;;;;0.00;0.00;;;;;;;;;;6329793;28;20044;-84
2023/09/03 10:57:03;;;;;;;0.00;0.00;;;;;;;;;;6318669;28;20394;-85
2023/09/03 11:00:07;;;;;;;0.00;0.00;;;;;;;;;;6317956;28;20036;-84
2023/09/03 11:03:18;;;;;;;0.00;0.00;;;;;;;;;;6323913;28;20132;-84
2023/09/03 11:06:28;;;;;;;0.00;0.00;;;;;;;;;;6319859;28;20028;-84
2023/09/03 11:09:29;;;;;;;0.00;0.00;;;;;;;;;;6318241;28;20016;-85
2023/09/03 11:12:29;;;;;;;0.00;0.00;;;;;;;;;;6321425;28;20036;-85
2023/09/03 11:15:30;;;;;;;0.00;0.00;;;;;;;;;;6320934;28;20461;-84
2023/09/03 11:18:30;;;;;;;0.00;0.00;;;;;;;;;;6320329;28;20038;-85
2023/09/03 11:21:31;;;;;;;0.00;0.00;;;;;;;;;;6321956;28;20024;-84
2023/09/03 11:24:44;;;;;;;0.00;0.00;;;;;;;;;;6317443;28;20052;-84
2023/09/03 11:27:50;;;;;;;0.00;0.00;;;;;;;;;;6323692;28;20051;-84
2023/09/03 11:30:57;;;;;;;0.00;0.00;;;;;;;;;;6311344;28;20020;-84
2023/09/03 11:33:58;;;;;;;0.00;0.00;;;;;;;;;;6315757;28;20020;-84
2023/09/03 11:36:58;;;;;;;;;;;;;;;;;;6311212;28;20020;-84
2023/09/03 11:39:58;;;;;;;0.00;0.00;;;;;;;;;;6317357;28;19912;-84
2023/09/03 11:42:59;;;;;;;0.00;0.00;;;;;;;;;;6313111;28;20020;-83
2023/09/03 11:46:01;;;;;;;0.00;0.00;;;;;;;;;;6314352;28;20073;-83
2023/09/03 11:49:04;;;;;;;0.00;0.00;;;;;;;;;;6314903;28;20016;-83
2023/09/03 11:52:14;;;;;;;0.00;0.00;;;;;;;;;;6309282;28;20164;-84
2023/09/03 11:55:14;;;;;;;0.00;0.00;;;;;;;;;;6316297;28;20130;-84
2023/09/03 11:58:19;;;;;;;0.00;0.00;;;;;;;;;;6312218;28;20016;-83
2023/09/03 12:01:19;;;;;;;0.00;0.00;;;;;;;;;;6319387;28;20043;-83
2023/09/03 12:04:20;;;;;;;0.00;0.00;;;;;;;;;;6304186;28;20546;-83
2023/09/03 12:07:20;;;;;;;0.00;0.00;;;;;;;;;;6309577;28;20024;-83
2023/09/03 12:10:21;;;;;;;0.00;0.00;;;;;;;;;;6313823;28;20016;-83
2023/09/03 12:13:31;;;;;;;0.00;0.00;;;;;;;;;;6328017;28;20023;-83
2023/09/03 12:16:44;;;;;;;0.00;0.00;;;;;;;;;;6319547;28;20904;-83
2023/09/03 12:19:44;;;;;;;0.00;0.00;;;;;;;;;;6315288;28;20012;-83
2023/09/03 12:22:44;;;;;;;0.00;0.00;;;;;;;;;;6330314;28;20016;-83
2023/09/03 12:25:46;;;;;;;0.00;0.00;;;;;;;;;;6318877;28;20127;-83
2023/09/03 12:28:46;;;;;;;0.00;0.00;;;;;;;;;;6327944;28;20136;-83
2023/09/03 12:31:46;;;;;;;;;;;;;;;;;;6320123;28;20035;-83
2023/09/03 12:34:49;;;;;;;0.00;0.00;;;;;;;;;;6313166;28;19934;-85
2023/09/03 12:37:58;;;;;;;0.00;0.00;;;;;;;;;;6316146;28;20020;-83
2023/09/03 12:40:58;;;;;;;0.00;0.00;;;;;;;;;;6325908;28;20381;-83
2023/09/03 12:44:07;;;;;;;0.00;0.00;;;;;;;;;;6315641;28;20058;-83
2023/09/03 12:47:09;;;;;;;0.00;0.00;;;;;;;;;;6309624;28;20472;-83
2023/09/03 12:50:09;;;;;;;0.00;0.00;;;;;;;;;;6320765;28;20048;-83
2023/09/03 12:53:09;;;;;;;0.00;0.00;;;;;;;;;;6317765;28;20048;-83
2023/09/03 12:56:10;;;;;;;0.00;0.00;;;;;;;;;;6307953;28;20076;-82
2023/09/03 12:59:11;;;;;;;0.00;0.00;;;;;;;;;;6313256;28;20040;-83
2023/09/03 13:02:13;;;;;;;0.00;0.00;;;;;;;;;;6320713;28;20418;-83
2023/09/03 13:05:13;;;;;;;0.00;0.00;;;;;;;;;;6317620;28;20031;-83
2023/09/03 13:08:13;;;;;;;0.00;0.00;;;;;;;;;;6315839;28;20174;-83
2023/09/03 13:11:13;;;;;;;0.00;0.00;;;;;;;;;;6316125;28;20036;-84
2023/09/03 13:14:13;;;;;;;0.00;0.00;;;;;;;;;;6323455;28;20040;-84
2023/09/03 13:17:14;;;;;;;0.00;0.00;;;;;;;;;;6314246;28;20647;-83
2023/09/03 13:20:14;;;;;;;0.00;0.00;;;;;;;;;;6306543;28;20036;-84
2023/09/03 13:23:14;;;;;;;0.00;0.00;;;;;;;;;;6321662;28;20068;-84
2023/09/03 13:26:14;;;;;;;0.00;0.00;;;;;;;;;;6318676;28;20495;-84
2023/09/03 13:29:15;;;;;;;0.00;0.00;;;;;;;;;;6322330;28;20017;-85
2023/09/03 13:32:15;;;;;;;0.00;0.00;;;;;;;;;;6316976;28;20055;-85
2023/09/03 13:35:15;;;;;;;0.00;0.00;;;;;;;;;;6309476;28;20032;-84
2023/09/03 13:38:15;;;;;;;0.00;0.00;;;;;;;;;;6321308;28;20082;-85
2023/09/03 13:41:15;;;;;;;0.00;0.00;;;;;;;;;;6317470;28;20082;-83
2023/09/03 13:44:16;;;;;;;0.00;0.00;;;;;;;;;;6326679;28;20027;-83
2023/09/03 13:47:16;;;;;;;;;;;;;;;;;;6320489;28;20024;-83
2023/09/03 13:50:16;;;;;;;0.00;0.00;;;;;;;;;;6326089;28;19912;-83
2023/09/03 13:53:16;;;;;;;;;;;;;;;;;;6303118;28;20106;-84
2023/09/03 13:56:16;;;;;;;0.00;0.00;;;;;;;;;;6313908;28;20000;-84
2023/09/03 13:59:17;;;;;;;0.00;0.00;;;;;;;;;;6318900;28;20064;-83
2023/09/03 14:02:17;;;;;;;0.00;0.00;;;;;;;;;;6320345;28;20024;-83
2023/09/03 14:05:18;;;;;;;0.00;0.00;;;;;;;;;;6316110;28;20768;-84
2023/09/03 14:08:18;;;;;;;0.00;0.00;;;;;;;;;;6317002;28;20035;-84
2023/09/03 14:11:18;;;;;;;;;;;;;;;;;;6314776;28;20012;-83
2023/09/03 14:14:19;;;;;;;0.00;0.00;;;;;;;;;;6310652;28;19962;-84
2023/09/03 14:17:19;;;;;;;0.00;0.00;;;;;;;;;;6304283;28;20017;-83
2023/09/03 14:20:19;;;;;;;0.00;0.00;;;;;;;;;;6313218;28;20017;-83
2023/09/03 14:23:19;;;;;;;0.00;0.00;;;;;;;;;;6313965;28;20512;-83
2023/09/03 14:26:20;;;;;;;0.00;0.00;;;;;;;;;;6323281;28;20024;-83
2023/09/03 14:29:21;;;;;;;0.00;0.00;;;;;;;;;;6322281;28;20051;-82
2023/09/03 14:32:21;;;;;;;0.00;0.00;;;;;;;;;;6327071;28;20043;-81
2023/09/03 14:35:21;;;;;;;;;;;;;;;;;;6330794;28;20042;-82
2023/09/03 14:38:22;;;;;;;0.00;0.00;;;;;;;;;;6325275;28;19914;-82
2023/09/03 14:41:24;;;;;;;0.00;0.00;;;;;;;;;;6326456;28;20334;-83
2023/09/03 14:44:24;;;;;;;0.00;0.00;;;;;;;;;;6322166;28;20080;-82
2023/09/03 14:47:25;;;;;;;0.00;0.00;;;;;;;;;;6327955;28;20061;-82
2023/09/03 14:50:25;;;;;;;0.00;0.00;;;;;;;;;;6330741;28;20060;-82
2023/09/03 14:53:25;;;;;;;0.00;0.00;;;;;;;;;;6336423;28;20094;-83
2023/09/03 14:56:25;;;;;;;0.00;0.00;;;;;;;;;;6318136;28;20107;-83
2023/09/03 14:59:26;;;;;;;0.00;0.00;;;;;;;;;;6309226;28;20482;-83
2023/09/03 15:02:26;;;;;;;0.00;0.00;;;;;;;;;;6312914;28;20027;-83
2023/09/03 15:05:28;;;;;;;0.00;0.00;;;;;;;;;;6310574;28;20022;-83
2023/09/03 15:08:28;;;;;;;0.00;0.00;;;;;;;;;;6321462;28;20016;-83
2023/09/03 15:11:28;;;;;;;0.00;0.00;;;;;;;;;;6311255;28;20039;-83
2023/09/03 15:14:29;;;;;;;0.00;0.00;;;;;;;;;;6324253;28;20051;-84
2023/09/03 15:17:29;;;;;;;0.00;0.00;;;;;;;;;;6318767;28;20066;-83
2023/09/03 15:20:29;;;;;;;0.00;0.00;;;;;;;;;;6324773;28;20028;-83
2023/09/03 15:23:30;;;;;;;0.00;0.00;;;;;;;;;;6327096;28;20728;-83
2023/09/03 15:26:30;;;;;;;0.00;0.00;;;;;;;;;;6335150;28;20559;-84
2023/09/03 15:29:30;;;;;;;0.00;0.00;;;;;;;;;;6311882;28;20029;-78
2023/09/03 15:32:31;;;;;;;0.00;0.00;;;;;;;;;;6326938;28;20114;-78
2023/09/03 15:35:35;;;;;;;0.00;0.00;;;;;;;;;;6316828;28;20024;-78
2023/09/03 15:38:35;;;;;;;0.00;0.00;;;;;;;;;;6313050;28;20028;-77
2023/09/03 15:41:35;;;;;;;0.00;0.00;;;;;;;;;;6313170;28;20109;-78
2023/09/03 15:44:35;;;;;;;0.00;0.00;;;;;;;;;;6323726;28;20024;-78
2023/09/03 15:47:35;;;;;;;0.00;0.00;;;;;;;;;;6309072;28;20077;-77
2023/09/03 15:50:39;;;;;;;0.00;0.00;;;;;;;;;;6315595;28;20462;-77
2023/09/03 15:53:42;;;;;;;0.00;0.00;;;;;;;;;;6327080;28;20383;-78
2023/09/03 15:56:43;;;;;;;0.00;0.00;;;;;;;;;;6319880;28;20023;-78
2023/09/03 15:59:43;;;;;;;0.00;0.00;;;;;;;;;;6319352;28;20440;-78
2023/09/03 16:02:43;;;;;;;0.00;0.00;;;;;;;;;;6318399;28;20122;-78
2023/09/03 16:05:44;;;;;;;0.00;0.00;;;;;;;;;;6314602;28;20398;-78
2023/09/03 16:08:44;;;;;;;0.00;0.00;;;;;;;;;;6310243;28;20051;-78
2023/09/03 16:11:44;;;;;;;0.00;0.00;;;;;;;;;;6312255;28;20040;-77
2023/09/03 16:14:45;;;;;;;0.00;0.00;;;;;;;;;;6323453;28;20135;-77
2023/09/03 16:17:45;;;;;;;0.00;0.00;;;;;;;;;;6316414;28;20036;-77
2023/09/03 16:20:48;;;;;;;0.00;0.00;;;;;;;;;;6320615;28;20051;-77
2023/09/03 16:23:48;;;;;;;0.00;0.00;;;;;;;;;;6320335;28;20073;-77
2023/09/03 16:26:48;;;;;;;0.00;0.00;;;;;;;;;;6315760;28;20413;-78
2023/09/03 16:29:49;;;;;;;0.00;0.00;;;;;;;;;;6315624;28;20024;-78
2023/09/03 16:32:49;;;;;;;0.00;0.00;;;;;;;;;;6319113;28;20401;-77
2023/09/03 16:35:49;;;;;;;0.00;0.00;;;;;;;;;;6312347;28;20157;-76
2023/09/03 16:38:49;;;;;;;0.00;0.00;;;;;;;;;;6315828;28;20019;-77
2023/09/03 16:41:50;;;;;;;0.00;0.00;;;;;;;;;;6312564;28;20032;-77
2023/09/03 16:44:50;;;;;;;0.00;0.00;;;;;;;;;;6310554;28;20073;-78
2023/09/03 16:47:51;;;;;;;0.00;0.00;;;;;;;;;;6316017;28;20029;-77
2023/09/03 16:50:53;;;;;;;0.00;0.00;;;;;;;;;;6318922;28;20028;-77
2023/09/03 16:53:53;;;;;;;0.00;0.00;;;;;;;;;;6309189;28;20040;-77
2023/09/03 16:56:53;;;;;;;0.10;0.10;;;;;;;;;;6317865;28;20103;-77
2023/09/03 16:59:54;;;;;;;0.00;0.00;;;;;;;;;;6318973;28;20012;-77
2023/09/03 17:02:54;;;;;;;0.00;0.00;;;;;;;;;;6317395;28;20024;-77
2023/09/03 17:05:54;;;;;;;0.00;0.00;;;;;;;;;;6315631;28;20062;-77
2023/09/03 17:08:55;;;;;;;0.00;0.00;;;;;;;;;;6319260;28;20156;-77
2023/09/03 17:11:56;;;;;;;0.00;0.00;;;;;;;;;;6318802;28;20020;-77
2023/09/03 17:14:56;;;;;;;0.10;0.10;;;;;;;;;;6313516;28;20023;-78
2023/09/03 17:17:56;;;;;;;0.10;0.10;;;;;;;;;;6320185;28;20023;-78
2023/09/03 17:20:56;;;;;;;0.00;0.00;;;;;;;;;;6325312;28;20088;-77
2023/09/03 17:23:56;;;;;;;0.00;0.00;;;;;;;;;;6314010;28;20023;-77
2023/09/03 17:26:57;;;;;;;0.10;0.10;;;;;;;;;;6317274;28;20024;-77
2023/09/03 17:29:57;;;;;;;0.10;0.10;;;;;;;;;;6317461;28;20562;-77
2023/09/03 17:32:57;;;;;;;0.00;0.00;;;;;;;;;;6317562;28;20028;-78
2023/09/03 17:35:57;;;;;;;0.10;0.10;;;;;;;;;;6317646;28;20110;-78
2023/09/03 17:38:57;;;;;;;0.10;0.10;;;;;;;;;;6307957;28;20566;-78
2023/09/03 17:41:59;;;;;;;0.00;0.00;;;;;;;;;;6319010;28;20537;-77
2023/09/03 17:45:01;;;;;;;0.10;0.10;;;;;;;;;;6313641;28;20023;-76
2023/09/03 17:48:01;;;;;;;0.10;0.10;;;;;;;;;;6312092;28;20478;-85
2023/09/03 17:51:01;;;;;;;0.10;0.10;;;;;;;;;;6306611;28;20027;-84
2023/09/03 17:54:02;;;;;;;0.10;0.10;;;;;;;;;;6300534;28;20482;-84
2023/09/03 17:57:04;;;;;;;0.10;0.10;;;;;;;;;;6311123;28;20024;-84
2023/09/03 18:00:04;;;;;;;0.10;0.10;;;;;;;;;;6307082;28;20019;-84
2023/09/03 18:03:05;;;;;;;0.10;0.10;;;;;;;;;;6318844;28;20067;-84
2023/09/03 18:06:06;;;;;;;0.10;0.10;;;;;;;;;;6308783;28;20016;-85
2023/09/03 18:09:06;;;;;;;0.10;0.10;;;;;;;;;;6326443;28;20082;-84